createdAt,value
2022-11-17T00:00:37.482Z,98846.09
2022-11-17T00:03:03.904Z,98835.31
2022-11-17T00:05:30.236Z,98838.84
2022-11-17T00:07:56.628Z,98839.44
2022-11-17T00:10:22.991Z,98835.91
2022-11-17T00:13:07.960Z,98827.84
2022-11-17T00:15:34.386Z,98816.25
2022-11-17T00:18:20.704Z,98819.75
2022-11-17T00:21:05.457Z,98809.41
2022-11-17T00:23:47.036Z,98805.50
2022-11-17T00:26:15.684Z,98801.38
2022-11-17T00:28:42.065Z,98792.94
2022-11-17T00:31:30.294Z,98785.28
2022-11-17T00:34:06.551Z,98785.94
2022-11-17T00:36:40.419Z,98779.94
2022-11-17T00:39:08.537Z,98776.88
2022-11-17T00:41:35.062Z,98768.41
2022-11-17T00:44:01.686Z,98765.13
2022-11-17T00:46:28.441Z,98764.50
2022-11-17T00:48:54.868Z,98745.31
2022-11-17T00:51:21.588Z,98751.94
2022-11-17T00:53:48.077Z,98745.97
2022-11-17T00:56:14.460Z,98744.53
2022-11-17T00:58:41.047Z,98730.66
2022-11-17T01:01:07.730Z,98721.19
2022-11-17T01:03:35.778Z,98718.94
2022-11-17T01:06:17.241Z,98727.22
2022-11-17T01:08:43.630Z,98714.22
2022-11-17T01:11:13.691Z,98709.88
2022-11-17T01:13:41.138Z,98717.31
2022-11-17T01:16:10.313Z,98716.50
2022-11-17T01:18:37.671Z,98709.50
2022-11-17T01:21:06.499Z,98714.88
2022-11-17T01:23:33.105Z,98707.00
2022-11-17T01:26:08.679Z,98692.75
2022-11-17T01:28:35.695Z,98688.44
2022-11-17T01:31:04.502Z,98683.06
2022-11-17T01:33:31.167Z,98688.44
2022-11-17T01:36:02.766Z,98682.00
2022-11-17T01:41:06.642Z,98670.44
2022-11-17T01:43:40.841Z,98675.56
2022-11-17T01:46:15.489Z,98654.47
2022-11-17T01:48:44.100Z,98653.41
2022-11-17T01:51:12.713Z,98645.16
2022-11-17T01:53:39.238Z,98645.75
2022-11-17T01:56:11.725Z,98634.75
2022-11-17T01:58:43.701Z,98639.94
2022-11-17T02:01:10.152Z,98631.88
2022-11-17T02:03:37.433Z,98641.56
2022-11-17T02:06:19.497Z,98630.81
2022-11-17T02:08:47.055Z,98624.63
2022-11-17T02:11:17.653Z,98621.13
2022-11-17T02:13:45.378Z,98616.75
2022-11-17T02:16:13.654Z,98607.06
2022-11-17T02:18:41.955Z,98605.44
2022-11-17T02:21:26.581Z,98600.25
2022-11-17T02:24:12.486Z,98608.53
2022-11-17T02:26:48.321Z,98593.66
2022-11-17T02:29:20.890Z,98596.16
2022-11-17T02:32:04.631Z,98603.59
2022-11-17T02:34:37.970Z,98600.31
2022-11-17T02:37:23.215Z,98598.06
2022-11-17T02:40:11.616Z,98598.50
2022-11-17T02:43:07.930Z,98597.91
2022-11-17T02:45:39.676Z,98593.56
2022-11-17T02:48:13.237Z,98602.69
2022-11-17T02:50:41.784Z,98585.94
2022-11-17T02:53:08.461Z,98593.19
2022-11-17T02:55:37.479Z,98578.09
2022-11-17T02:58:03.809Z,98571.09
2022-11-17T03:00:35.178Z,98572.09
2022-11-17T03:03:31.300Z,98554.16
2022-11-17T03:06:06.588Z,98546.28
2022-11-17T03:08:47.511Z,98545.69
2022-11-17T03:11:14.374Z,98537.25
2022-11-17T03:13:50.406Z,98540.97
2022-11-17T03:16:24.620Z,98545.75
2022-11-17T03:18:58.637Z,98541.41
2022-11-17T03:21:44.981Z,98532.53
2022-11-17T03:24:14.887Z,98537.69
2022-11-17T03:26:47.786Z,98530.66
2022-11-17T03:29:18.290Z,98533.56
2022-11-17T03:31:48.335Z,98531.91
2022-11-17T03:34:20.441Z,98523.03
2022-11-17T03:36:51.893Z,98510.63
2022-11-17T03:39:30.408Z,98499.06
2022-11-17T03:42:02.935Z,98490.16
2022-11-17T03:44:32.151Z,98482.34
2022-11-17T03:47:01.716Z,98472.84
2022-11-17T03:49:37.334Z,98473.06
2022-11-17T03:52:04.322Z,98466.25
2022-11-17T03:54:31.166Z,98468.38
2022-11-17T03:57:16.973Z,98459.47
2022-11-17T04:00:01.430Z,98454.34
2022-11-17T04:02:28.074Z,98449.41
2022-11-17T04:05:06.352Z,98460.16
2022-11-17T04:07:36.995Z,98455.59
2022-11-17T04:10:04.963Z,98450.44
2022-11-17T04:12:50.125Z,98449.81
2022-11-17T04:15:34.905Z,98449.81
2022-11-17T04:18:01.972Z,98439.06
2022-11-17T04:20:35.762Z,98425.06
2022-11-17T04:23:11.215Z,98411.66
2022-11-17T04:25:58.211Z,98419.69
2022-11-17T04:28:38.471Z,98418.03
2022-11-17T04:31:12.225Z,98407.53
2022-11-17T04:33:41.507Z,98405.88
2022-11-17T04:36:09.546Z,98409.00
2022-11-17T04:38:36.223Z,98398.72
2022-11-17T04:41:26.309Z,98399.53
2022-11-17T04:43:53.106Z,98374.75
2022-11-17T04:46:20.408Z,98373.94
2022-11-17T04:48:47.581Z,98384.06
2022-11-17T04:51:15.417Z,98391.31
2022-11-17T04:53:42.562Z,98384.31
2022-11-17T04:56:09.809Z,98377.28
2022-11-17T04:58:36.560Z,98373.78
2022-11-17T05:01:12.616Z,98381.63
2022-11-17T05:03:47.621Z,98378.94
2022-11-17T05:06:16.835Z,98360.97
2022-11-17T05:08:44.167Z,98368.19
2022-11-17T05:11:31.036Z,98370.06
2022-11-17T05:13:57.877Z,98353.13
2022-11-17T05:16:42.676Z,98361.16
2022-11-17T05:19:16.592Z,98354.16
2022-11-17T05:21:43.005Z,98346.09
2022-11-17T05:24:09.550Z,98352.28
2022-11-17T05:26:37.874Z,98342.38
2022-11-17T05:29:06.963Z,98335.16
2022-11-17T05:31:34.242Z,98328.94
2022-11-17T05:34:01.709Z,98337.44
2022-11-17T05:36:28.434Z,98333.94
2022-11-17T05:38:55.586Z,98330.44
2022-11-17T05:41:22.994Z,98321.34
2022-11-17T05:43:50.437Z,98339.31
2022-11-17T05:46:21.112Z,98315.97
2022-11-17T05:48:49.928Z,98336.63
2022-11-17T05:51:21.687Z,98350.88
2022-11-17T05:53:49.059Z,98317.03
2022-11-17T05:56:39.726Z,98297.19
2022-11-17T05:59:34.485Z,98292.88
2022-11-17T06:02:10.048Z,98325.28
2022-11-17T06:04:36.784Z,98351.53
2022-11-17T06:07:03.253Z,98352.56
2022-11-17T06:09:34.040Z,98356.06
2022-11-17T06:12:05.498Z,98349.91
2022-11-17T06:14:32.650Z,98355.88
2022-11-17T06:17:06.516Z,98354.59
2022-11-17T06:19:39.885Z,98336.44
2022-11-17T06:22:14.289Z,98335.38
2022-11-17T06:24:43.334Z,98296.72
2022-11-17T06:27:11.718Z,98320.88
2022-11-17T06:29:43.619Z,98333.50
2022-11-17T06:32:10.940Z,98305.03
2022-11-17T06:34:37.474Z,98307.91
2022-11-17T06:37:03.864Z,98305.22
2022-11-17T06:39:30.393Z,98306.03
2022-11-17T06:41:56.814Z,98321.34
2022-11-17T06:44:23.146Z,98317.84
2022-11-17T06:46:49.529Z,98321.34
2022-11-17T06:49:16.188Z,98319.25
2022-11-17T06:51:45.451Z,98317.19
2022-11-17T06:54:12.836Z,98310.16
2022-11-17T06:56:40.744Z,98302.09
2022-11-17T06:59:07.365Z,98312.03
2022-11-17T07:01:33.697Z,98303.38
2022-11-17T07:04:00.077Z,98309.78
2022-11-17T07:06:26.400Z,98317.03
2022-11-17T07:08:52.830Z,98301.13
2022-11-17T07:11:19.690Z,98302.19
2022-11-17T07:13:46.032Z,98299.25
2022-11-17T07:16:20.092Z,98301.94
2022-11-17T07:18:49.518Z,98306.28
2022-11-17T07:21:16.099Z,98281.53
2022-11-17T07:23:44.273Z,98287.50
2022-11-17T07:26:10.985Z,98292.88
2022-11-17T07:28:38.081Z,98301.72
2022-11-17T07:31:07.194Z,98291.81
2022-11-17T07:33:34.281Z,98305.03
2022-11-17T07:36:09.743Z,98292.41
2022-11-17T07:38:37.878Z,98303.97
2022-11-17T07:41:05.899Z,98312.03
2022-11-17T07:43:33.545Z,98307.47
2022-11-17T07:46:06.581Z,98316.38
2022-11-17T07:48:33.742Z,98305.84
2022-11-17T07:51:01.125Z,98307.91
2022-11-17T07:53:27.783Z,98303.16
2022-11-17T07:55:54.187Z,98300.69
2022-11-17T07:58:20.626Z,98304.22
2022-11-17T08:00:47.066Z,98292.41
2022-11-17T08:03:13.466Z,98299.66
2022-11-17T08:05:43.300Z,98298.84
2022-11-17T08:08:10.452Z,98301.28
2022-11-17T08:10:36.927Z,98293.22
2022-11-17T08:13:03.675Z,98303.16
2022-11-17T08:15:30.783Z,98299.66
2022-11-17T08:17:59.572Z,98306.44
2022-11-17T08:20:27.742Z,98296.72
2022-11-17T08:22:55.102Z,98300.03
2022-11-17T08:25:24.004Z,98302.69
2022-11-17T08:27:52.034Z,98282.28
2022-11-17T08:30:20.274Z,98273.16
2022-11-17T08:32:49.050Z,98291.16
2022-11-17T08:35:17.013Z,98332.25
2022-11-17T08:37:43.484Z,98303.75
2022-11-17T08:40:11.007Z,98327.69
2022-11-17T08:42:37.477Z,98316.72
2022-11-17T08:45:05.676Z,98308.22
2022-11-17T08:47:32.189Z,98312.34
2022-11-17T08:49:58.506Z,98316.44
2022-11-17T08:52:24.878Z,98319.72
2022-11-17T08:54:52.388Z,98328.41
2022-11-17T08:57:19.061Z,98330.38
2022-11-17T08:59:45.379Z,98326.44
2022-11-17T09:02:12.642Z,98323.31
2022-11-17T09:04:39.292Z,98326.13
2022-11-17T09:07:06.173Z,98331.91
2022-11-17T09:09:33.550Z,98328.59
2022-11-17T09:12:00.109Z,98327.06
2022-11-17T09:14:26.657Z,98330.97
2022-11-17T09:16:53.381Z,98340.00
2022-11-17T09:19:19.917Z,98334.16
2022-11-17T09:21:46.271Z,98344.44
2022-11-17T09:24:12.650Z,98349.63
2022-11-17T09:26:40.846Z,98346.47
2022-11-17T09:29:08.537Z,98354.28
2022-11-17T09:31:35.494Z,98349.53
2022-11-17T09:34:05.625Z,98347.66
2022-11-17T09:36:32.936Z,98357.13
2022-11-17T09:38:59.272Z,98363.34
2022-11-17T09:41:42.515Z,98347.56
2022-11-17T09:44:31.225Z,98358.13
2022-11-17T09:47:03.014Z,98366.75
2022-11-17T09:49:53.672Z,98358.69
2022-11-17T09:52:43.374Z,98361.16
2022-11-17T09:55:33.913Z,98367.34
2022-11-17T09:58:16.081Z,98378.09
2022-11-17T10:00:47.316Z,98376.22
2022-11-17T10:03:19.941Z,98376.03
2022-11-17T10:05:46.572Z,98375.22
2022-11-17T10:08:18.254Z,98383.84
2022-11-17T10:10:47.477Z,98386.31
2022-11-17T10:13:36.808Z,98386.91
2022-11-17T10:16:21.527Z,98389.97
2022-11-17T10:18:47.874Z,98396.16
2022-11-17T10:21:14.185Z,98394.06
2022-11-17T10:23:46.846Z,98404.38
2022-11-17T10:26:15.892Z,98403.91
2022-11-17T10:28:42.751Z,98400.78
2022-11-17T10:31:17.608Z,98394.50
2022-11-17T10:33:46.756Z,98400.03
2022-11-17T10:36:27.125Z,98393.13
2022-11-17T10:38:55.532Z,98395.38
2022-11-17T10:41:42.013Z,98403.81
2022-11-17T10:44:21.905Z,98400.66
2022-11-17T10:47:01.759Z,98395.66
2022-11-17T10:49:36.012Z,98402.00
2022-11-17T10:52:16.927Z,98401.28
2022-11-17T10:54:43.986Z,98399.56
2022-11-17T10:57:28.505Z,98397.81
2022-11-17T10:59:59.321Z,98404.97
2022-11-17T11:02:25.615Z,98406.97
2022-11-17T11:05:08.414Z,98408.16
2022-11-17T11:07:36.000Z,98400.66
2022-11-17T11:10:32.634Z,98407.47
2022-11-17T11:12:59.254Z,98405.84
2022-11-17T11:15:31.761Z,98408.53
2022-11-17T11:17:58.266Z,98403.34
2022-11-17T11:20:35.380Z,98402.53
2022-11-17T11:23:38.758Z,98401.47
2022-11-17T11:26:22.681Z,98413.06
2022-11-17T11:29:17.181Z,98407.47
2022-11-17T11:32:03.426Z,98412.63
2022-11-17T11:34:54.452Z,98407.00
2022-11-17T11:37:30.811Z,98410.28
2022-11-17T11:40:15.498Z,98409.03
2022-11-17T11:42:44.597Z,98417.47
2022-11-17T11:45:29.882Z,98410.56
2022-11-17T11:48:41.499Z,98410.09
2022-11-17T11:51:17.525Z,98404.63
2022-11-17T11:53:52.726Z,98410.34
2022-11-17T11:56:29.704Z,98414.44
2022-11-17T11:59:04.198Z,98419.16
2022-11-17T12:02:14.333Z,98419.28
2022-11-17T12:04:59.216Z,98413.53
2022-11-17T12:08:10.197Z,98423.38
2022-11-17T12:10:46.892Z,98423.47
2022-11-17T12:13:15.687Z,98421.38
2022-11-17T12:15:42.006Z,98423.00
2022-11-17T12:18:11.069Z,98434.16
2022-11-17T12:20:55.102Z,98429.81
2022-11-17T12:23:34.593Z,98436.59
2022-11-17T12:26:01.745Z,98436.59
2022-11-17T12:28:28.137Z,98431.22
2022-11-17T12:30:57.007Z,98442.00
2022-11-17T12:33:23.887Z,98444.69
2022-11-17T12:36:16.717Z,98439.88
2022-11-17T12:38:43.102Z,98457.13
2022-11-17T12:41:09.573Z,98456.28
2022-11-17T12:43:35.908Z,98457.34
2022-11-17T12:46:26.177Z,98452.78
2022-11-17T12:49:01.622Z,98453.84
2022-11-17T12:51:40.321Z,98457.34
2022-11-17T12:54:25.054Z,98458.63
2022-11-17T12:57:03.350Z,98461.34
2022-11-17T13:00:05.860Z,98458.97
2022-11-17T13:02:57.655Z,98449.59
2022-11-17T13:05:27.836Z,98453.50
2022-11-17T13:08:21.878Z,98460.88
2022-11-17T13:10:49.022Z,98463.91
2022-11-17T13:13:24.744Z,98462.75
2022-11-17T13:15:53.464Z,98466.38
2022-11-17T13:21:03.133Z,98461.19
2022-11-17T13:23:32.391Z,98464.00
2022-11-17T13:26:20.374Z,98469.50
2022-11-17T13:28:48.629Z,98472.53
2022-11-17T13:31:20.764Z,98471.84
2022-11-17T13:34:19.291Z,98478.38
2022-11-17T13:36:57.020Z,98478.53
2022-11-17T13:39:27.579Z,98471.03
2022-11-17T13:41:55.582Z,98492.72
2022-11-17T13:44:27.865Z,98481.22
2022-11-17T13:46:55.212Z,98484.50
2022-11-17T13:49:34.682Z,98498.91
2022-11-17T13:52:05.699Z,98494.09
2022-11-17T13:54:32.885Z,98484.94
2022-11-17T13:57:07.329Z,98495.84
2022-11-17T13:59:38.999Z,98492.88
2022-11-17T14:02:19.292Z,98488.34
2022-11-17T14:05:10.876Z,98487.25
2022-11-17T14:07:38.897Z,98489.38
2022-11-17T14:10:33.446Z,98489.63
2022-11-17T14:13:02.973Z,98503.84
2022-11-17T14:15:36.194Z,98508.91
2022-11-17T14:18:19.930Z,98501.75
2022-11-17T14:20:47.895Z,98507.03
2022-11-17T14:23:15.344Z,98505.28
2022-11-17T14:25:44.655Z,98520.28
2022-11-17T14:28:19.478Z,98521.00
2022-11-17T14:30:54.420Z,98529.53
2022-11-17T14:33:21.763Z,98513.25
2022-11-17T14:35:54.329Z,98520.50
2022-11-17T14:38:21.683Z,98529.91
2022-11-17T14:40:51.488Z,98526.63
2022-11-17T14:43:22.124Z,98529.56
2022-11-17T14:45:49.682Z,98534.13
2022-11-17T14:48:19.265Z,98530.25
2022-11-17T14:50:46.952Z,98536.72
2022-11-17T14:53:13.400Z,98540.47
2022-11-17T14:55:39.812Z,98539.88
2022-11-17T14:58:06.370Z,98540.09
2022-11-17T15:00:32.784Z,98545.75
2022-11-17T15:02:59.116Z,98545.16
2022-11-17T15:05:25.500Z,98545.16
2022-11-17T15:07:51.928Z,98547.25
2022-11-17T15:10:18.476Z,98552.66
2022-11-17T15:12:44.770Z,98557.22
2022-11-17T15:15:11.331Z,98559.13
2022-11-17T15:17:37.755Z,98565.53
2022-11-17T15:20:05.941Z,98559.34
2022-11-17T15:22:32.546Z,98563.09
2022-11-17T15:24:58.905Z,98553.34
2022-11-17T15:27:25.270Z,98553.59
2022-11-17T15:29:51.657Z,98560.28
2022-11-17T15:32:17.970Z,98565.28
2022-11-17T15:34:44.293Z,98562.03
2022-11-17T15:37:10.598Z,98565.16
2022-11-17T15:39:36.961Z,98562.94
2022-11-17T15:42:03.398Z,98566.09
2022-11-17T15:44:29.748Z,98573.84
2022-11-17T15:46:56.198Z,98575.13
2022-11-17T15:49:22.566Z,98582.63
2022-11-17T15:51:48.888Z,98577.69
2022-11-17T15:54:20.383Z,98582.50
2022-11-17T15:56:47.409Z,98581.91
2022-11-17T15:59:14.353Z,98586.94
2022-11-17T16:01:41.240Z,98591.50
2022-11-17T16:04:09.792Z,98597.94
2022-11-17T16:06:38.557Z,98599.00
2022-11-17T16:09:06.496Z,98592.78
2022-11-17T16:11:33.734Z,98601.91
2022-11-17T16:14:01.202Z,98600.28
2022-11-17T16:16:33.929Z,98602.16
2022-11-17T16:19:00.323Z,98601.56
2022-11-17T16:21:26.881Z,98605.31
2022-11-17T16:23:55.978Z,98610.69
2022-11-17T16:26:24.603Z,98609.03
2022-11-17T16:28:57.153Z,98616.09
2022-11-17T16:31:26.221Z,98618.19
2022-11-17T16:33:57.628Z,98614.66
2022-11-17T16:36:28.940Z,98611.13
2022-11-17T16:39:01.312Z,98615.69
2022-11-17T16:41:31.748Z,98618.63
2022-11-17T16:43:58.544Z,98623.19
2022-11-17T16:46:28.807Z,98618.84
2022-11-17T16:48:56.357Z,98618.25
2022-11-17T16:51:23.008Z,98617.44
2022-11-17T16:53:56.302Z,98621.75
2022-11-17T16:56:22.927Z,98615.81
2022-11-17T16:58:50.296Z,98619.53
2022-11-17T17:01:19.639Z,98621.19
2022-11-17T17:03:46.386Z,98615.22
2022-11-17T17:06:15.417Z,98627.03
2022-11-17T17:08:41.954Z,98625.63
2022-11-17T17:11:14.355Z,98623.75
2022-11-17T17:13:41.794Z,98622.34
2022-11-17T17:16:16.856Z,98625.84
2022-11-17T17:18:43.805Z,98633.31
2022-11-17T17:21:16.857Z,98627.94
2022-11-17T17:23:45.077Z,98643.28
2022-11-17T17:26:14.227Z,98632.97
2022-11-17T17:28:41.242Z,98629.66
2022-11-17T17:31:08.226Z,98632.56
2022-11-17T17:33:36.169Z,98633.63
2022-11-17T17:36:14.083Z,98640.09
2022-11-17T17:38:40.970Z,98643.81
2022-11-17T17:41:15.784Z,98641.13
2022-11-17T17:43:43.364Z,98649.44
2022-11-17T17:46:15.957Z,98652.94
2022-11-17T17:48:43.741Z,98649.66
2022-11-17T17:51:16.084Z,98655.84
2022-11-17T17:53:42.684Z,98655.28
2022-11-17T17:56:11.586Z,98658.78
2022-11-17T17:58:48.800Z,98664.16
2022-11-17T18:01:16.852Z,98662.50
2022-11-17T18:03:50.921Z,98669.78
2022-11-17T18:06:22.149Z,98669.78
2022-11-17T18:08:49.148Z,98676.22
2022-11-17T18:11:18.770Z,98679.13
2022-11-17T18:13:46.808Z,98679.38
2022-11-17T18:16:16.096Z,98682.06
2022-11-17T18:18:45.128Z,98682.25
2022-11-17T18:21:19.269Z,98684.94
2022-11-17T18:23:45.762Z,98684.31
2022-11-17T18:26:16.578Z,98689.72
2022-11-17T18:28:45.019Z,98689.09
2022-11-17T18:31:12.328Z,98688.28
2022-11-17T18:33:38.747Z,98694.94
2022-11-17T18:36:08.961Z,98702.00
2022-11-17T18:38:36.655Z,98704.06
2022-11-17T18:41:05.171Z,98712.38
2022-11-17T18:43:31.839Z,98715.28
2022-11-17T18:46:06.861Z,98721.72
2022-11-17T18:48:34.983Z,98711.38
2022-11-17T18:51:19.185Z,98723.22
2022-11-17T18:53:46.226Z,98723.66
2022-11-17T18:56:15.147Z,98716.63
2022-11-17T18:58:42.740Z,98721.41
2022-11-17T19:01:17.532Z,98727.84
2022-11-17T19:03:46.234Z,98732.41
2022-11-17T19:06:13.635Z,98727.22
2022-11-17T19:08:40.289Z,98724.53
2022-11-17T19:11:08.346Z,98729.09
2022-11-17T19:13:36.921Z,98735.09
2022-11-17T19:16:06.231Z,98725.16
2022-11-17T19:18:33.035Z,98734.84
2022-11-17T19:21:06.772Z,98730.31
2022-11-17T19:23:41.921Z,98733.81
2022-11-17T19:26:11.187Z,98733.59
2022-11-17T19:28:38.081Z,98723.88
2022-11-17T19:31:07.466Z,98734.66
2022-11-17T19:33:36.609Z,98735.47
2022-11-17T19:36:08.630Z,98742.50
2022-11-17T19:38:38.156Z,98741.09
2022-11-17T19:41:08.268Z,98746.47
2022-11-17T19:46:08.073Z,98742.13
2022-11-17T19:48:35.116Z,98750.63
2022-11-17T19:51:21.196Z,98746.06
2022-11-17T19:53:49.081Z,98757.69
2022-11-17T19:56:16.247Z,98751.69
2022-11-17T19:58:43.342Z,98758.09
2022-11-17T20:01:15.250Z,98755.41
2022-11-17T20:03:42.410Z,98747.56
2022-11-17T20:06:10.361Z,98763.72
2022-11-17T20:08:36.788Z,98765.59
2022-11-17T20:11:04.295Z,98764.75
2022-11-17T20:13:31.542Z,98766.63
2022-11-17T20:15:59.503Z,98774.94
2022-11-17T20:18:26.091Z,98770.56
2022-11-17T20:20:52.419Z,98779.69
2022-11-17T20:23:18.895Z,98780.97
2022-11-17T20:25:45.340Z,98785.53
2022-11-17T20:28:12.132Z,98788.22
2022-11-17T20:30:39.102Z,98793.00
2022-11-17T20:33:05.833Z,98793.00
2022-11-17T20:35:33.449Z,98795.88
2022-11-17T20:38:02.227Z,98794.25
2022-11-17T20:40:29.630Z,98798.00
2022-11-17T20:42:55.965Z,98809.78
2022-11-17T20:45:22.980Z,98809.19
2022-11-17T20:47:49.310Z,98810.03
2022-11-17T20:50:16.049Z,98823.69
2022-11-17T20:52:42.473Z,98815.81
2022-11-17T20:55:08.866Z,98816.88
2022-11-17T20:57:35.277Z,98817.94
2022-11-17T21:00:01.977Z,98818.94
2022-11-17T21:02:28.349Z,98822.47
2022-11-17T21:04:54.672Z,98821.88
2022-11-17T21:07:21.185Z,98828.28
2022-11-17T21:09:47.600Z,98832.84
2022-11-17T21:12:13.952Z,98834.72
2022-11-17T21:14:40.485Z,98838.44
2022-11-17T21:17:27.267Z,98837.84
2022-11-17T21:19:53.653Z,98842.38
2022-11-17T21:22:20.025Z,98849.03
2022-11-17T21:24:46.456Z,98848.44
2022-11-17T21:27:14.797Z,98859.63
2022-11-17T21:29:41.149Z,98857.34
2022-11-17T21:32:07.919Z,98862.34
2022-11-17T21:34:34.348Z,98861.94
2022-11-17T21:37:00.668Z,98865.28
2022-11-17T21:39:27.131Z,98855.97
2022-11-17T21:41:53.417Z,98866.53
2022-11-17T21:44:19.827Z,98866.16
2022-11-17T21:46:46.284Z,98862.25
2022-11-17T21:49:12.661Z,98865.34
2022-11-17T21:51:39.022Z,98871.97
2022-11-17T21:54:12.354Z,98877.59
2022-11-17T21:56:40.183Z,98888.53
2022-11-17T21:59:11.760Z,98878.59
2022-11-17T22:01:38.988Z,98886.91
2022-11-17T22:04:05.427Z,98896.84
2022-11-17T22:06:31.969Z,98888.78
2022-11-17T22:08:59.286Z,98889.59
2022-11-17T22:11:38.010Z,98894.16
2022-11-17T22:14:17.014Z,98889.59
2022-11-17T22:16:54.999Z,98893.31
2022-11-17T22:19:23.221Z,98892.72
2022-11-17T22:21:52.361Z,98892.09
2022-11-17T22:24:19.222Z,98896.22
2022-11-17T22:26:45.702Z,98898.53
2022-11-17T22:29:18.161Z,98898.94
2022-11-17T22:31:46.058Z,98903.91
2022-11-17T22:34:13.521Z,98906.38
2022-11-17T22:36:40.033Z,98907.66
2022-11-17T22:39:06.906Z,98913.44
2022-11-17T22:41:33.524Z,98917.56
2022-11-17T22:44:00.353Z,98918.81
2022-11-17T22:46:28.040Z,98923.75
2022-11-17T22:48:54.881Z,98931.22
2022-11-17T22:51:39.873Z,98930.41
2022-11-17T22:54:07.729Z,98934.09
2022-11-17T22:56:35.157Z,98934.09
2022-11-17T22:59:01.652Z,98938.66
2022-11-17T23:01:28.022Z,98935.97
2022-11-17T23:03:54.425Z,98936.78
2022-11-17T23:06:22.601Z,98936.59
2022-11-17T23:08:48.930Z,98940.09
2022-11-17T23:11:36.163Z,98938.22
2022-11-17T23:14:01.722Z,98943.19
2022-11-17T23:16:27.983Z,98942.75
2022-11-17T23:18:55.712Z,98943.19
2022-11-17T23:21:23.001Z,98948.78
2022-11-17T23:23:49.529Z,98945.47
2022-11-17T23:26:16.302Z,98953.53
2022-11-17T23:28:43.402Z,98956.22
2022-11-17T23:31:13.120Z,98965.09
2022-11-17T23:33:44.555Z,98965.72
2022-11-17T23:36:16.654Z,98969.84
2022-11-17T23:38:43.117Z,98966.13
2022-11-17T23:41:12.048Z,98965.94
2022-11-17T23:43:38.922Z,98969.63
2022-11-17T23:46:07.882Z,98979.34
2022-11-17T23:48:34.208Z,98987.41
2022-11-17T23:51:08.148Z,98988.88
2022-11-17T23:53:34.640Z,98982.66
2022-11-17T23:56:01.689Z,98989.53
2022-11-17T23:58:28.841Z,98992.81
